Time;durP1;ratioP1;P1;durP2;ratioP2;P2;SDS_P1;SDS_P2;PMS_P1;PMS_P2;Temp;Humidity;BMP_temperature;BMP_pressure;BME280_temperature;BME280_humidity;BME280_pressure;Samples;Min_cycle;Max_cycle;Signal;HPM_P1;HPM_P2
2021/12/31 00:00:55;;;;;;;;;;;;;;;3.71;100.00;100878.41;5596326;31;34303;-84
2021/12/31 00:04:01;;;;;;;;;;;;;;;3.71;100.00;100870.56;5596472;31;33994;-84
2021/12/31 00:07:03;;;;;;;;;;;;;;;3.69;100.00;100876.81;5597794;31;33802;-84
2021/12/31 00:10:07;;;;;;;;;;;;;;;3.64;100.00;100876.22;5596732;31;33738;-83
2021/12/31 00:13:09;;;;;;;;;;;;;;;3.69;100.00;100875.03;5596838;31;33677;-83
2021/12/31 00:16:15;;;;;;;;;;;;;;;3.66;100.00;100893.50;5595667;31;33630;-83
2021/12/31 00:19:17;;;;;;;;;;;;;;;3.60;100.00;100886.00;5595008;31;34026;-83
2021/12/31 00:25:29;;;;;;;;;;;;;;;3.62;100.00;100880.66;5595445;31;33850;-83
2021/12/31 00:28:32;;;;;;;;;;;;;;;3.62;100.00;100885.91;5601837;31;33581;-83
2021/12/31 00:31:37;;;;;;;;;;;;;;;3.62;100.00;100881.53;5596411;31;34602;-83
2021/12/31 00:34:40;;;;;;;;;;;;;;;3.68;100.00;100882.97;5581635;31;33680;-83
2021/12/31 00:37:43;;;;;;;;;;;;;;;3.68;100.00;100883.81;5595114;31;33976;-83
2021/12/31 00:40:46;;;;;;;;;;;;;;;3.71;100.00;100888.88;5595528;31;33404;-83
2021/12/31 00:43:48;;;;;;;;;;;;;;;3.69;100.00;100890.72;5595102;31;33687;-83
2021/12/31 00:46:53;;;;;;;;;;;;;;;3.73;100.00;100890.56;5594805;31;33179;-83
2021/12/31 00:49:55;;;;;;;;;;;;;;;3.69;100.00;100879.44;5594867;31;33935;-83
2021/12/31 00:52:58;;;;;;;;;;;;;;;3.69;100.00;100884.66;5594872;31;33495;-83
2021/12/31 00:56:00;;;;;;;;;;;;;;;3.67;100.00;100897.81;5594167;31;33503;-83
2021/12/31 00:59:06;;;;;;;;;;;;;;;3.67;100.00;100892.59;5594578;31;33722;-83
2021/12/31 01:02:11;;;;;;;;;;;;;;;3.69;100.00;100888.13;5594794;31;34106;-83
2021/12/31 01:05:15;;;;;;;;;;;;;;;3.62;100.00;100897.22;5594790;31;33335;-83
2021/12/31 01:08:20;;;;;;;;;;;;;;;3.55;100.00;100893.22;5594559;31;33981;-83
2021/12/31 01:11:22;;;;;;;;;;;;;;;3.50;100.00;100895.25;5594412;31;33182;-83
2021/12/31 01:14:31;;;;;;;;;;;;;;;3.51;100.00;100899.56;5595846;31;33540;-83
2021/12/31 01:21:01;;;;;;;;;;;;;;;3.44;100.00;100900.81;5550259;32;33201;-83
2021/12/31 01:24:05;;;;;;;;;;;;;;;3.44;100.00;100901.66;5555605;32;33475;-83
2021/12/31 01:27:08;;;;;;;;;;;;;;;3.50;100.00;100905.72;5557687;32;33927;-83
2021/12/31 01:30:14;;;;;;;;;;;;;;;3.50;100.00;100909.19;5558640;32;34153;-83
2021/12/31 01:33:16;;;;;;;;;;;;;;;3.51;100.00;100897.78;5557930;32;33832;-83
2021/12/31 01:36:23;;;;;;;;;;;;;;;3.49;100.00;100893.56;5557740;32;33822;-83
2021/12/31 01:39:28;;;;;;;;;;;;;;;3.53;100.00;100895.13;5558965;32;33551;-83
2021/12/31 01:42:33;;;;;;;;;;;;;;;3.40;100.00;100898.37;5562668;32;34232;-83
2021/12/31 01:45:47;;;;;;;;;;;;;;;3.41;100.00;100896.59;5557445;32;34246;-83
2021/12/31 01:51:58;;;;;;;;;;;;;;;3.48;100.00;100889.25;5557209;32;34016;-83
2021/12/31 01:55:03;;;;;;;;;;;;;;;3.52;100.00;100888.19;5557505;32;33741;-83
2021/12/31 01:58:09;;;;;;;;;;;;;;;3.50;100.00;100884.81;5557378;32;33490;-83
2021/12/31 02:01:15;;;;;;;;;;;;;;;3.49;100.00;100893.56;5556629;32;33260;-83
2021/12/31 02:04:18;;;;;;;;;;;;;;;3.42;100.00;100894.84;5555954;32;33553;-83
2021/12/31 02:07:21;;;;;;;;;;;;;;;3.40;100.00;100898.37;5556304;32;33302;-83
2021/12/31 02:10:24;;;;;;;;;;;;;;;3.38;100.00;100897.59;5556226;32;33488;-83
2021/12/31 02:13:29;;;;;;;;;;;;;;;3.45;100.00;100902.50;5557923;32;34035;-83
2021/12/31 02:16:32;;;;;;;;;;;;;;;3.39;100.00;100894.06;5583135;31;33752;-83
2021/12/31 02:19:35;;;;;;;;;;;;;;;3.40;100.00;100895.75;5595653;31;33815;-83
2021/12/31 02:22:39;;;;;;;;;;;;;;;3.43;100.00;100889.50;5595428;31;33879;-83
2021/12/31 02:25:55;;;;;;;;;;;;;;;3.46;100.00;100893.72;5588630;31;33055;-83
2021/12/31 02:29:01;;;;;;;;;;;;;;;3.48;100.00;100877.03;5596868;31;33852;-83
2021/12/31 02:32:04;;;;;;;;;;;;;;;3.49;100.00;100878.72;5595857;31;33838;-83
2021/12/31 02:35:08;;;;;;;;;;;;;;;3.48;100.00;100870.94;5602650;31;33706;-83
2021/12/31 02:38:11;;;;;;;;;;;;;;;3.50;100.00;100876.94;5597123;31;33926;-83
2021/12/31 02:41:21;;;;;;;;;;;;;;;3.45;100.00;100868.50;5596967;31;33753;-83
2021/12/31 02:44:25;;;;;;;;;;;;;;;3.38;100.00;100871.44;5596412;31;34016;-83
2021/12/31 02:47:30;;;;;;;;;;;;;;;3.27;100.00;100873.78;5598046;31;33721;-83
2021/12/31 02:50:38;;;;;;;;;;;;;;;3.19;100.00;100868.09;5598122;31;34383;-83
2021/12/31 02:53:41;;;;;;;;;;;;;;;3.14;100.00;100876.19;5598633;31;34255;-83
2021/12/31 02:56:45;;;;;;;;;;;;;;;3.15;100.00;100863.94;5601080;31;33248;-83
2021/12/31 02:59:47;;;;;;;;;;;;;;;3.18;100.00;100869.84;5597527;31;33523;-83
2021/12/31 03:02:50;;;;;;;;;;;;;;;3.14;100.00;100860.50;5597773;31;33585;-83
2021/12/31 03:05:54;;;;;;;;;;;;;;;3.03;100.00;100870.66;5596920;31;34085;-83
2021/12/31 03:08:58;;;;;;;;;;;;;;;3.03;100.00;100866.28;5597380;31;34179;-83
2021/12/31 03:12:00;;;;;;;;;;;;;;;3.00;100.00;100863.81;5596890;31;33441;-83
2021/12/31 03:15:04;;;;;;;;;;;;;;;2.87;100.00;100868.00;5597560;31;33762;-83
2021/12/31 03:18:08;;;;;;;;;;;;;;;2.71;100.00;100871.37;5596998;31;33510;-83
2021/12/31 03:21:20;;;;;;;;;;;;;;;2.63;100.00;100873.53;5596263;31;33461;-83
2021/12/31 03:24:23;;;;;;;;;;;;;;;2.56;100.00;100872.13;5596404;31;33308;-84
2021/12/31 03:27:26;;;;;;;;;;;;;;;2.49;100.00;100866.34;5596937;31;33583;-83
2021/12/31 03:30:29;;;;;;;;;;;;;;;2.45;100.00;100868.25;5598177;31;34019;-83
2021/12/31 03:33:31;;;;;;;;;;;;;;;2.43;100.00;100859.66;5598150;31;33848;-83
2021/12/31 03:36:34;;;;;;;;;;;;;;;2.42;100.00;100860.56;5596772;31;33896;-83
2021/12/31 03:39:36;;;;;;;;;;;;;;;2.42;100.00;100857.97;5596927;31;33400;-83
2021/12/31 03:42:42;;;;;;;;;;;;;;;2.46;100.00;100864.72;5596652;31;34162;-83
2021/12/31 03:45:46;;;;;;;;;;;;;;;2.63;100.00;100857.84;5596289;31;33381;-83
2021/12/31 03:48:52;;;;;;;;;;;;;;;2.65;100.00;100858.59;5597287;31;33862;-83
2021/12/31 03:51:54;;;;;;;;;;;;;;;2.84;100.00;100858.50;5596429;31;34264;-83
2021/12/31 03:54:57;;;;;;;;;;;;;;;2.67;100.00;100854.13;5596468;31;33564;-83
2021/12/31 03:57:59;;;;;;;;;;;;;;;2.63;100.00;100860.47;5596531;31;33805;-83
2021/12/31 04:01:02;;;;;;;;;;;;;;;2.55;100.00;100854.75;5596600;31;33605;-83
2021/12/31 04:04:08;;;;;;;;;;;;;;;2.34;100.00;100849.66;5598362;31;33882;-83
2021/12/31 04:07:12;;;;;;;;;;;;;;;2.21;100.00;100852.03;5597104;31;33776;-83
2021/12/31 04:10:18;;;;;;;;;;;;;;;2.17;100.00;100853.09;5603905;31;35722;-83
2021/12/31 04:13:21;;;;;;;;;;;;;;;2.14;100.00;100856.69;5596327;31;32460;-83
2021/12/31 04:16:24;;;;;;;;;;;;;;;2.11;100.00;100856.00;5596983;31;33615;-83
2021/12/31 04:19:27;;;;;;;;;;;;;;;2.05;100.00;100851.06;5598076;31;34083;-83
2021/12/31 04:22:31;;;;;;;;;;;;;;;2.05;100.00;100851.91;5596005;31;33043;-83
2021/12/31 04:25:33;;;;;;;;;;;;;;;1.94;100.00;100839.38;5596120;31;34232;-83
2021/12/31 04:28:38;;;;;;;;;;;;;;;1.85;100.00;100840.66;5596723;31;33738;-83
2021/12/31 04:31:44;;;;;;;;;;;;;;;1.75;100.00;100834.16;5596215;31;33454;-84
2021/12/31 04:34:47;;;;;;;;;;;;;;;1.68;100.00;100840.59;5596335;31;33751;-83
2021/12/31 04:37:50;;;;;;;;;;;;;;;1.75;100.00;100834.16;5596145;31;34114;-83
2021/12/31 04:40:54;;;;;;;;;;;;;;;1.69;100.00;100834.44;5596169;31;33480;-83
2021/12/31 04:43:56;;;;;;;;;;;;;;;1.68;100.00;100840.59;5596458;31;33704;-83
2021/12/31 04:46:59;;;;;;;;;;;;;;;1.72;100.00;100823.87;5596312;31;34061;-82
2021/12/31 04:50:04;;;;;;;;;;;;;;;1.78;100.00;100836.63;5596579;31;33809;-82
2021/12/31 04:53:10;;;;;;;;;;;;;;;1.82;100.00;100843.41;5596169;31;33740;-82
2021/12/31 04:56:13;;;;;;;;;;;;;;;1.76;100.00;100846.28;5595548;31;34210;-82
2021/12/31 04:59:15;;;;;;;;;;;;;;;1.72;100.00;100849.97;5598050;31;34011;-82
2021/12/31 05:02:18;;;;;;;;;;;;;;;1.78;100.00;100849.69;5595947;31;33410;-82
2021/12/31 05:05:21;;;;;;;;;;;;;;;1.78;100.00;100848.84;5595714;31;34110;-82
2021/12/31 05:08:30;;;;;;;;;;;;;;;1.90;100.00;100852.62;5596962;31;34054;-82
2021/12/31 05:11:42;;;;;;;;;;;;;;;2.02;100.00;100852.06;5595782;31;33923;-82
2021/12/31 05:14:47;;;;;;;;;;;;;;;2.36;100.00;100852.22;5596213;31;33510;-83
2021/12/31 05:17:50;;;;;;;;;;;;;;;2.44;100.00;100845.69;5596083;31;34098;-83
2021/12/31 05:20:52;;;;;;;;;;;;;;;2.31;100.00;100842.81;5600829;31;34240;-83
2021/12/31 05:23:57;;;;;;;;;;;;;;;2.23;100.00;100844.09;5600622;31;34849;-83
2021/12/31 05:27:00;;;;;;;;;;;;;;;2.21;100.00;100851.16;5602972;31;34882;-83
2021/12/31 05:30:04;;;;;;;;;;;;;;;2.39;100.00;100845.06;5596756;31;33737;-83
2021/12/31 05:33:06;;;;;;;;;;;;;;;2.34;100.00;100849.66;5602473;31;33657;-83
2021/12/31 05:36:09;;;;;;;;;;;;;;;2.58;100.00;100847.63;5602066;31;33447;-83
2021/12/31 05:39:14;;;;;;;;;;;;;;;2.43;100.00;100850.97;5605548;31;34590;-83
2021/12/31 05:42:17;;;;;;;;;;;;;;;2.44;100.00;100852.69;5605643;31;33703;-83
2021/12/31 05:45:22;;;;;;;;;;;;;;;2.85;100.00;100846.31;5606775;31;34684;-83
2021/12/31 05:48:35;;;;;;;;;;;;;;;3.17;100.00;100855.09;5597028;31;33421;-84
2021/12/31 05:51:37;;;;;;;;;;;;;;;3.26;100.00;100860.78;5596284;31;33828;-83
2021/12/31 05:54:40;;;;;;;;;;;;;;;3.42;100.00;100858.22;5596371;31;33766;-83
2021/12/31 05:57:45;;;;;;;;;;;;;;;3.59;100.00;100850.28;5596317;31;33868;-83
2021/12/31 06:00:49;;;;;;;;;;;;;;;4.30;100.00;100854.25;5596172;31;33188;-83
2021/12/31 06:03:53;;;;;;;;;;;;;;;4.88;100.00;100848.31;5596426;31;34742;-83
2021/12/31 06:06:58;;;;;;;;;;;;;;;4.94;100.00;100854.06;5595549;31;33817;-84
2021/12/31 06:10:01;;;;;;;;;;;;;;;4.95;100.00;100855.75;5595888;31;34422;-84
2021/12/31 06:13:03;;;;;;;;;;;;;;;5.39;100.00;100847.91;5595491;31;33868;-83
2021/12/31 06:16:06;;;;;;;;;;;;;;;5.53;100.00;100853.16;5595792;31;33551;-84
2021/12/31 06:19:10;;;;;;;;;;;;;;;5.57;100.00;100862.50;5594778;31;34325;-84
2021/12/31 06:22:13;;;;;;;;;;;;;;;5.57;100.00;100862.50;5595574;31;33680;-84
2021/12/31 06:25:15;;;;;;;;;;;;;;;5.77;100.00;100868.31;5595478;31;33757;-83
2021/12/31 06:28:22;;;;;;;;;;;;;;;5.71;100.00;100876.56;5597451;31;34389;-83
2021/12/31 06:31:25;;;;;;;;;;;;;;;5.66;100.00;100870.75;5596191;31;33299;-83
2021/12/31 06:34:31;;;;;;;;;;;;;;;5.99;100.00;100867.81;5600696;31;33740;-84
2021/12/31 06:37:37;;;;;;;;;;;;;;;6.02;100.00;100885.19;5599209;31;34760;-84
2021/12/31 06:40:42;;;;;;;;;;;;;;;6.04;100.00;100891.16;5595047;31;34233;-84
2021/12/31 06:43:55;;;;;;;;;;;;;;;6.44;100.00;100895.63;5595614;31;33857;-83
2021/12/31 06:46:58;;;;;;;;;;;;;;;6.69;100.00;100892.28;5594637;31;34105;-84
2021/12/31 06:50:01;;;;;;;;;;;;;;;6.88;100.00;100894.50;5595163;31;33535;-84
2021/12/31 06:53:04;;;;;;;;;;;;;;;7.27;100.00;100899.78;5594365;31;34459;-84
2021/12/31 06:56:09;;;;;;;;;;;;;;;7.26;100.00;100898.97;5593696;31;34463;-83
2021/12/31 06:59:12;;;;;;;;;;;;;;;7.34;100.00;100914.22;5593252;31;34172;-83
2021/12/31 07:02:15;;;;;;;;;;;;;;;7.76;100.00;100903.47;5595692;31;33757;-83
2021/12/31 07:05:18;;;;;;;;;;;;;;;8.02;100.00;100901.59;5594345;31;33935;-83
2021/12/31 07:08:20;;;;;;;;;;;;;;;8.06;100.00;100898.72;5595021;31;34362;-83
2021/12/31 07:11:23;;;;;;;;;;;;;;;8.16;100.00;100910.31;5594793;31;34296;-83
2021/12/31 07:14:45;;;;;;;;;;;;;;;8.39;100.00;100921.00;5588538;31;33541;-83
2021/12/31 07:17:48;;;;;;;;;;;;;;;8.42;100.00;100931.28;5595195;31;33624;-83
2021/12/31 07:20:52;;;;;;;;;;;;;;;8.53;100.00;100938.47;5595451;31;34775;-83
2021/12/31 07:23:55;;;;;;;;;;;;;;;8.78;100.00;100932.22;5593912;31;33160;-84
2021/12/31 07:26:58;;;;;;;;;;;;;;;8.75;100.00;100942.97;5595736;31;33376;-83
2021/12/31 07:30:00;;;;;;;;;;;;;;;8.62;100.00;100941.25;5594972;31;34353;-83
2021/12/31 07:33:03;;;;;;;;;;;;;;;8.69;100.00;100954.00;5597085;31;33662;-83
2021/12/31 07:36:06;;;;;;;;;;;;;;;8.69;100.00;100938.19;5597097;31;33590;-83
2021/12/31 07:39:12;;;;;;;;;;;;;;;8.51;100.00;100946.47;5597760;31;33596;-84
2021/12/31 07:42:17;;;;;;;;;;;;;;;8.45;100.00;100944.25;5597959;31;33631;-84
2021/12/31 07:45:20;;;;;;;;;;;;;;;8.42;100.00;100937.41;5597603;31;33566;-83
2021/12/31 07:48:23;;;;;;;;;;;;;;;8.24;100.00;100950.13;5599239;31;33619;-83
2021/12/31 07:51:26;;;;;;;;;;;;;;;8.22;100.00;100948.56;5602789;31;34580;-83
2021/12/31 07:54:29;;;;;;;;;;;;;;;8.27;100.00;100955.19;5596767;31;33771;-84
2021/12/31 07:57:31;;;;;;;;;;;;;;;8.29;100.00;100966.44;5596706;31;33448;-83
2021/12/31 08:00:37;;;;;;;;;;;;;;;8.42;100.00;100961.16;5597890;31;33608;-84
2021/12/31 08:03:40;;;;;;;;;;;;;;;8.22;100.00;100965.22;5596539;31;34095;-84
2021/12/31 08:06:45;;;;;;;;;;;;;;;8.09;100.00;100956.50;5598955;31;33975;-84
2021/12/31 08:09:47;;;;;;;;;;;;;;;8.12;100.00;100956.28;5596066;31;33383;-83
2021/12/31 08:12:50;;;;;;;;;;;;;;;8.07;100.00;100963.66;5596284;31;33654;-84
2021/12/31 08:15:59;;;;;;;;;;;;;;;7.99;100.00;100957.16;5597020;31;33742;-83
2021/12/31 08:19:01;;;;;;;;;;;;;;;8.13;100.00;100964.06;5598100;31;34091;-83
2021/12/31 08:22:04;;;;;;;;;;;;;;;8.25;100.00;100972.91;5596726;31;33236;-83
2021/12/31 08:25:07;;;;;;;;;;;;;;;8.47;100.00;100971.38;5601157;31;33890;-84
2021/12/31 08:28:14;;;;;;;;;;;;;;;8.40;100.00;100967.47;5601230;31;33833;-84
2021/12/31 08:31:21;;;;;;;;;;;;;;;8.50;100.00;100965.87;5596578;31;33721;-83
2021/12/31 08:34:24;;;;;;;;;;;;;;;8.66;100.00;100968.25;5596807;31;33787;-83
2021/12/31 08:37:30;;;;;;;;;;;;;;;8.80;100.00;100956.69;5596089;31;34381;-83
2021/12/31 08:40:33;;;;;;;;;;;;;;;8.95;100.00;100966.09;5595459;31;33225;-83
2021/12/31 08:43:35;;;;;;;;;;;;;;;9.08;100.00;100959.88;5595307;31;33779;-83
2021/12/31 08:46:38;;;;;;;;;;;;;;;9.16;100.00;100962.81;5595962;31;34004;-83
2021/12/31 08:49:43;;;;;;;;;;;;;;;9.08;100.00;100960.75;5595588;31;33615;-83
2021/12/31 08:52:51;;;;;;;;;;;;;;;9.06;100.00;100967.09;5595550;31;34094;-83
2021/12/31 08:55:54;;;;;;;;;;;;;;;9.13;100.00;100968.31;5595582;31;33848;-83
2021/12/31 08:58:57;;;;;;;;;;;;;;;9.11;100.00;100964.94;5596233;31;33616;-83
2021/12/31 09:02:01;;;;;;;;;;;;;;;9.39;100.00;100968.16;5596436;31;33634;-83
2021/12/31 09:05:07;;;;;;;;;;;;;;;9.34;100.00;100975.56;5601524;31;34092;-82
2021/12/31 09:08:09;;;;;;;;;;;;;;;9.33;100.00;100980.03;5597101;31;33501;-84
2021/12/31 09:11:13;;;;;;;;;;;;;;;9.48;100.00;100972.72;5595975;31;34343;-84
2021/12/31 09:14:15;;;;;;;;;;;;;;;9.64;100.00;100972.37;5597808;31;33600;-81
2021/12/31 09:17:18;;;;;;;;;;;;;;;9.67;100.00;100966.88;5597863;31;33449;-82
2021/12/31 09:20:21;;;;;;;;;;;;;;;9.92;100.00;100972.03;5596214;31;33511;-81
2021/12/31 09:23:23;;;;;;;;;;;;;;;9.93;100.00;100976.34;5595880;31;33673;-84
2021/12/31 09:26:26;;;;;;;;;;;;;;;10.02;100.00;100978.28;5594640;31;34410;-84
2021/12/31 09:29:29;;;;;;;;;;;;;;;10.16;100.00;100967.44;5594520;31;33332;-84
2021/12/31 09:32:31;;;;;;;;;;;;;;;10.16;100.00;100977.16;5595020;31;33978;-84
2021/12/31 09:35:34;;;;;;;;;;;;;;;10.26;100.00;100972.00;5596083;31;33293;-84
2021/12/31 09:38:37;;;;;;;;;;;;;;;10.34;100.00;100973.06;5595235;31;33556;-84
2021/12/31 09:41:39;;;;;;;;;;;;;;;10.39;100.00;100971.88;5595486;31;34300;-84
2021/12/31 09:44:44;;;;;;;;;;;;;;;10.35;100.00;100961.53;5595297;31;33694;-82
2021/12/31 09:47:46;;;;;;;;;;;;;;;10.41;100.00;100954.94;5595709;31;34663;-83
2021/12/31 09:50:50;;;;;;;;;;;;;;;10.44;100.00;100953.84;5595981;31;33766;-84
2021/12/31 09:53:59;;;;;;;;;;;;;;;10.48;100.00;100950.81;5595192;31;33874;-84
2021/12/31 09:57:02;;;;;;;;;;;;;;;10.69;100.00;100952.66;5595666;31;33892;-82
2021/12/31 10:00:07;;;;;;;;;;;;;;;10.65;100.00;100951.22;5595422;31;34415;-82
2021/12/31 10:03:13;;;;;;;;;;;;;;;10.66;100.00;100948.47;5595566;31;33654;-81
2021/12/31 10:06:16;;;;;;;;;;;;;;;10.74;100.00;100947.00;5594805;31;33745;-81
2021/12/31 10:09:19;;;;;;;;;;;;;;;10.81;100.00;100941.06;5595102;31;33422;-81
2021/12/31 10:12:47;;;;;;;;;;;;;;;10.90;100.00;100938.63;5597144;31;34269;-81
2021/12/31 10:15:51;;;;;;;;;;;;;;;10.88;100.00;100932.63;5597251;31;33635;-84
2021/12/31 10:19:13;;;;;;;;;;;;;;;10.99;100.00;100937.84;5596832;31;34329;-84
2021/12/31 10:22:18;;;;;;;;;;;;;;;10.97;100.00;100940.62;5594548;31;33421;-84
2021/12/31 10:25:22;;;;;;;;;;;;;;;11.06;100.00;100941.69;5595087;31;33829;-84
2021/12/31 10:28:25;;;;;;;;;;;;;;;11.12;100.00;100938.50;5594718;31;34203;-85
2021/12/31 10:31:30;;;;;;;;;;;;;;;11.24;100.00;100930.50;5595463;31;33709;-82
2021/12/31 10:34:37;;;;;;;;;;;;;;;11.15;100.00;100926.81;5595377;31;33519;-83
2021/12/31 10:38:04;;;;;;;;;;;;;;;11.22;100.00;100916.53;5596405;31;33968;-82
2021/12/31 10:41:07;;;;;;;;;;;;;;;11.19;100.00;100917.66;5594527;31;33675;-82
2021/12/31 10:44:11;;;;;;;;;;;;;;;11.32;100.00;100917.44;5594987;31;34287;-83
2021/12/31 10:47:16;;;;;;;;;;;;;;;11.40;100.00;100917.63;5594508;31;34441;-82
2021/12/31 10:50:21;;;;;;;;;;;;;;;11.43;100.00;100924.47;5594096;31;33867;-82
2021/12/31 10:53:34;;;;;;;;;;;;;;;11.52;100.00;100917.56;5593896;31;34142;-82
2021/12/31 10:56:40;;;;;;;;;;;;;;;11.72;100.00;100921.09;5594601;31;33993;-82
2021/12/31 10:59:46;;;;;;;;;;;;;;;11.41;100.00;100921.97;5594133;31;33873;-82
2021/12/31 11:02:49;;;;;;;;;;;;;;;11.48;100.00;100927.56;5595073;31;33620;-82
2021/12/31 11:05:56;;;;;;;;;;;;;;;11.57;100.00;100926.78;5595729;31;33846;-82
2021/12/31 11:09:05;;;;;;;;;;;;;;;11.88;100.00;100920.59;5597806;31;33809;-82
2021/12/31 11:12:10;;;;;;;;;;;;;;;12.10;99.33;100913.47;5598626;31;33485;-83
2021/12/31 11:15:15;;;;;;;;;;;;;;;12.34;96.26;100905.94;5596949;31;33784;-83
2021/12/31 11:18:23;;;;;;;;;;;;;;;12.29;97.77;100899.38;5596777;31;33503;-83
2021/12/31 11:21:26;;;;;;;;;;;;;;;12.15;96.19;100906.78;5597207;31;34191;-83
2021/12/31 11:24:38;;;;;;;;;;;;;;;12.22;95.04;100911.53;5596657;31;33663;-83
2021/12/31 11:27:44;;;;;;;;;;;;;;;12.26;94.00;100897.84;5596366;31;33694;-82
2021/12/31 11:30:50;;;;;;;;;;;;;;;12.19;94.77;100894.06;5596747;31;33941;-83
2021/12/31 11:33:57;;;;;;;;;;;;;;;12.15;95.71;100892.66;5597373;31;33916;-83
2021/12/31 11:37:02;;;;;;;;;;;;;;;12.14;95.36;100891.84;5597857;31;33980;-82
2021/12/31 11:40:23;;;;;;;;;;;;;;;12.16;95.47;100883.72;5599892;31;34136;-83
2021/12/31 11:43:27;;;;;;;;;;;;;;;12.13;95.97;100890.16;5596928;31;33700;-85
2021/12/31 11:46:31;;;;;;;;;;;;;;;12.15;95.67;100892.66;5597191;31;33693;-84
2021/12/31 11:49:37;;;;;;;;;;;;;;;12.15;95.88;100892.66;5597484;31;33104;-84
2021/12/31 11:53:02;;;;;;;;;;;;;;;12.11;95.76;100901.84;5596941;31;33595;-83
2021/12/31 11:56:07;;;;;;;;;;;;;;;12.13;95.75;100891.94;5596322;31;33505;-82
2021/12/31 11:59:13;;;;;;;;;;;;;;;12.12;95.86;100895.56;5597080;31;34741;-82
2021/12/31 12:02:18;;;;;;;;;;;;;;;12.11;95.43;100889.44;5596422;31;34218;-82
2021/12/31 12:05:22;;;;;;;;;;;;;;;12.01;96.00;100891.25;5596802;31;34123;-82
2021/12/31 12:08:31;;;;;;;;;;;;;;;11.90;96.68;100882.41;5595836;31;33766;-82
2021/12/31 12:11:58;;;;;;;;;;;;;;;11.85;97.45;100887.25;5596741;31;33125;-83
2021/12/31 12:15:02;;;;;;;;;;;;;;;11.85;97.81;100875.81;5595790;31;34166;-82
2021/12/31 12:18:05;;;;;;;;;;;;;;;11.83;97.81;100881.25;5594261;31;33473;-82
2021/12/31 12:21:30;;;;;;;;;;;;;;;11.76;98.10;100879.28;5596534;31;33495;-83
2021/12/31 12:24:33;;;;;;;;;;;;;;;11.80;98.22;100888.63;5597121;31;34447;-82
2021/12/31 12:27:40;;;;;;;;;;;;;;;11.90;98.20;100884.19;5596217;31;34381;-82
2021/12/31 12:30:47;;;;;;;;;;;;;;;12.01;97.86;100883.28;5596201;31;32906;-83
2021/12/31 12:33:58;;;;;;;;;;;;;;;12.00;97.66;100874.47;5596696;31;34202;-83
2021/12/31 12:37:01;;;;;;;;;;;;;;;11.98;97.81;100880.91;5596231;31;34169;-82
2021/12/31 12:40:04;;;;;;;;;;;;;;;12.04;97.73;100867.94;5595571;31;33985;-82
2021/12/31 12:43:17;;;;;;;;;;;;;;;12.15;97.14;100874.09;5595189;31;34244;-83
2021/12/31 12:46:24;;;;;;;;;;;;;;;12.01;98.22;100862.91;5596760;31;33814;-83
2021/12/31 12:49:34;;;;;;;;;;;;;;;12.28;97.09;100872.00;5596609;31;34516;-82
2021/12/31 12:52:51;;;;;;;;;;;;;;;12.42;96.08;100865.44;5596185;31;33851;-82
2021/12/31 12:56:02;;;;;;;;;;;;;;;12.39;96.10;100864.91;5596945;31;33632;-82
2021/12/31 12:59:05;;;;;;;;;;;;;;;12.59;95.02;100858.59;5597065;31;32325;-82
2021/12/31 13:02:08;;;;;;;;;;;;;;;12.45;95.60;100853.72;5596945;31;34183;-83
2021/12/31 13:05:14;;;;;;;;;;;;;;;12.23;97.60;100854.84;5595640;31;33564;-82
2021/12/31 13:08:19;;;;;;;;;;;;;;;12.07;98.31;100850.91;5597027;31;33616;-82
2021/12/31 13:11:21;;;;;;;;;;;;;;;12.20;97.90;100848.00;5598837;31;33857;-83
2021/12/31 13:14:28;;;;;;;;;;;;;;;12.29;97.55;100841.88;5596067;31;33800;-83
2021/12/31 13:17:32;;;;;;;;;;;;;;;12.19;97.42;100841.84;5596540;31;33397;-83
2021/12/31 13:20:37;;;;;;;;;;;;;;;12.15;98.28;100836.97;5597555;31;33403;-83
2021/12/31 13:23:41;;;;;;;;;;;;;;;12.21;97.93;100839.06;5597022;31;34812;-83
2021/12/31 13:26:50;;;;;;;;;;;;;;;12.13;98.35;100831.81;5596176;31;33644;-82
2021/12/31 13:30:06;;;;;;;;;;;;;;;12.19;97.94;100833.06;5595045;31;33284;-83
2021/12/31 13:33:19;;;;;;;;;;;;;;;12.02;99.41;100827.44;5595259;31;34086;-82
2021/12/31 13:36:28;;;;;;;;;;;;;;;11.98;99.58;100823.41;5595426;31;33664;-82
2021/12/31 13:39:32;;;;;;;;;;;;;;;11.87;99.96;100818.22;5596844;31;33398;-82
2021/12/31 13:42:35;;;;;;;;;;;;;;;11.77;100.00;100823.47;5595080;31;34885;-83
2021/12/31 13:45:42;;;;;;;;;;;;;;;11.77;100.00;100819.97;5595418;31;34442;-83
2021/12/31 13:48:45;;;;;;;;;;;;;;;11.68;100.00;100821.66;5595389;31;34295;-83
2021/12/31 13:51:48;;;;;;;;;;;;;;;11.68;100.00;100827.78;5594103;31;33626;-83
2021/12/31 13:54:52;;;;;;;;;;;;;;;11.65;100.00;100828.03;5594101;31;33475;-83
2021/12/31 13:57:55;;;;;;;;;;;;;;;11.70;100.00;100815.22;5594041;31;33727;-83
2021/12/31 14:01:14;;;;;;;;;;;;;;;11.73;100.00;100809.66;5595954;31;33268;-82
2021/12/31 14:04:17;;;;;;;;;;;;;;;11.68;100.00;100816.34;5594420;31;34311;-84
2021/12/31 14:07:28;;;;;;;;;;;;;;;11.52;100.00;100814.22;5593995;31;33672;-84
2021/12/31 14:10:34;;;;;;;;;;;;;;;11.37;100.00;100816.41;5594504;31;34297;-84
2021/12/31 14:13:41;;;;;;;;;;;;;;;11.26;100.00;100801.44;5595443;31;34082;-84
2021/12/31 14:16:44;;;;;;;;;;;;;;;11.07;100.00;100824.22;5594601;31;33783;-84
2021/12/31 14:19:47;;;;;;;;;;;;;;;11.00;100.00;100816.91;5594452;31;33783;-84
2021/12/31 14:22:50;;;;;;;;;;;;;;;11.07;100.00;100818.91;5593805;31;34498;-84
2021/12/31 14:25:53;;;;;;;;;;;;;;;10.96;100.00;100819.81;5596369;31;33826;-85
2021/12/31 14:28:56;;;;;;;;;;;;;;;10.70;100.00;100816.75;5595082;31;35962;-84
2021/12/31 14:32:10;;;;;;;;;;;;;;;10.45;100.00;100810.88;5594830;31;34084;-83
2021/12/31 14:35:18;;;;;;;;;;;;;;;10.29;100.00;100821.03;5594385;31;33772;-82
2021/12/31 14:38:23;;;;;;;;;;;;;;;10.12;100.00;100823.22;5594793;31;33184;-84
2021/12/31 14:41:31;;;;;;;;;;;;;;;9.91;100.00;100820.53;5596482;31;33725;-85
2021/12/31 14:44:34;;;;;;;;;;;;;;;9.87;100.00;100819.13;5597497;31;34611;-84
2021/12/31 14:47:37;;;;;;;;;;;;;;;9.74;100.00;100813.94;5598472;31;33437;-85
2021/12/31 14:50:41;;;;;;;;;;;;;;;9.70;100.00;100812.53;5599862;31;34551;-85
2021/12/31 14:53:44;;;;;;;;;;;;;;;9.50;100.00;100814.13;5598162;31;33515;-85
2021/12/31 14:56:48;;;;;;;;;;;;;;;9.38;100.00;100813.31;5596418;31;33951;-84
2021/12/31 14:59:50;;;;;;;;;;;;;;;9.23;100.00;100810.91;5595947;31;34378;-84
2021/12/31 15:02:53;;;;;;;;;;;;;;;9.16;100.00;100809.72;5597265;31;33555;-83
2021/12/31 15:05:56;;;;;;;;;;;;;;;9.08;100.00;100798.88;5598170;31;33020;-84
2021/12/31 15:08:58;;;;;;;;;;;;;;;8.99;100.00;100799.59;5600258;31;34710;-84
2021/12/31 15:12:07;;;;;;;;;;;;;;;8.95;100.00;100802.47;5597879;31;33949;-84
2021/12/31 15:15:12;;;;;;;;;;;;;;;8.80;100.00;100798.38;5596567;31;33730;-83
2021/12/31 15:18:15;;;;;;;;;;;;;;;8.66;100.00;100791.53;5598759;31;33116;-85
2021/12/31 15:21:21;;;;;;;;;;;;;;;8.56;100.00;100807.22;5596994;31;33397;-84
2021/12/31 15:24:24;;;;;;;;;;;;;;;8.64;100.00;100807.47;5597206;31;34277;-84
2021/12/31 15:27:27;;;;;;;;;;;;;;;8.35;100.00;100815.75;5597709;31;33959;-84
2021/12/31 15:30:30;;;;;;;;;;;;;;;8.15;100.00;100809.31;5597400;31;32985;-84
2021/12/31 15:33:32;;;;;;;;;;;;;;;7.99;100.00;100814.84;5598744;31;33652;-85
2021/12/31 15:36:35;;;;;;;;;;;;;;;7.91;100.00;100811.94;5598344;31;33395;-85
2021/12/31 15:39:37;;;;;;;;;;;;;;;7.81;100.00;100803.84;5596505;31;33219;-84
2021/12/31 15:42:40;;;;;;;;;;;;;;;7.83;100.00;100798.47;5596397;31;34578;-84
2021/12/31 15:45:43;;;;;;;;;;;;;;;7.76;100.00;100786.72;5595887;31;33843;-84
2021/12/31 15:48:48;;;;;;;;;;;;;;;7.79;100.00;100797.84;5595840;31;33570;-84
2021/12/31 15:51:53;;;;;;;;;;;;;;;7.55;100.00;100789.94;5596218;31;33492;-85
2021/12/31 15:54:56;;;;;;;;;;;;;;;7.40;100.00;100797.97;5595998;31;33667;-84
2021/12/31 15:58:02;;;;;;;;;;;;;;;7.28;100.00;100798.00;5596256;31;33435;-83